sensor_id;sensor_type;location;lat;lon;timestamp;pressure;altitude;pressure_sealevel;temperature;humidity
32324;BME280;25666;44.350;9.222;2023-11-21T00:00:14;100893.34;;;13.57;100.00
32324;BME280;25666;44.350;9.222;2023-11-21T00:02:40;100887.50;;;13.62;100.00
32324;BME280;25666;44.350;9.222;2023-11-21T00:05:08;100881.81;;;13.59;100.00
32324;BME280;25666;44.350;9.222;2023-11-21T00:07:37;100878.28;;;13.62;100.00
32324;BME280;25666;44.350;9.222;2023-11-21T00:10:04;100863.78;;;13.56;100.00
32324;BME280;25666;44.350;9.222;2023-11-21T00:12:35;100848.59;;;13.57;100.00
32324;BME280;25666;44.350;9.222;2023-11-21T00:15:00;100835.22;;;13.66;100.00
32324;BME280;25666;44.350;9.222;2023-11-21T00:17:27;100835.22;;;13.66;100.00
32324;BME280;25666;44.350;9.222;2023-11-21T00:19:52;100845.53;;;13.62;100.00
32324;BME280;25666;44.350;9.222;2023-11-21T00:22:18;100848.09;;;13.32;100.00
32324;BME280;25666;44.350;9.222;2023-11-21T00:24:47;100848.97;;;13.36;100.00
32324;BME280;25666;44.350;9.222;2023-11-21T00:27:13;100837.88;;;13.40;100.00
32324;BME280;25666;44.350;9.222;2023-11-21T00:29:53;100828.69;;;13.39;100.00
32324;BME280;25666;44.350;9.222;2023-11-21T00:32:22;100826.69;;;13.40;100.00
32324;BME280;25666;44.350;9.222;2023-11-21T00:34:48;100834.53;;;13.34;100.00
32324;BME280;25666;44.350;9.222;2023-11-21T00:37:14;100833.03;;;13.37;100.00
32324;BME280;25666;44.350;9.222;2023-11-21T00:39:41;100831.38;;;13.36;100.00
32324;BME280;25666;44.350;9.222;2023-11-21T00:42:06;100831.75;;;13.34;100.00
32324;BME280;25666;44.350;9.222;2023-11-21T00:44:32;100813.56;;;13.44;100.00
32324;BME280;25666;44.350;9.222;2023-11-21T00:47:00;100813.97;;;13.43;100.00
32324;BME280;25666;44.350;9.222;2023-11-21T00:49:25;100816.09;;;13.49;100.00
32324;BME280;25666;44.350;9.222;2023-11-21T00:51:53;100819.97;;;13.45;100.00
32324;BME280;25666;44.350;9.222;2023-11-21T00:54:18;100826.31;;;13.41;100.00
32324;BME280;25666;44.350;9.222;2023-11-21T00:56:44;100820.72;;;13.41;100.00
32324;BME280;25666;44.350;9.222;2023-11-21T00:59:12;100823.75;;;13.33;100.00
32324;BME280;25666;44.350;9.222;2023-11-21T01:01:40;100822.63;;;13.37;100.00
32324;BME280;25666;44.350;9.222;2023-11-21T01:04:06;100820.63;;;13.38;100.00
32324;BME280;25666;44.350;9.222;2023-11-21T01:06:34;100827.88;;;13.39;100.00
32324;BME280;25666;44.350;9.222;2023-11-21T01:09:00;100838.16;;;13.35;100.00
32324;BME280;25666;44.350;9.222;2023-11-21T01:11:26;100822.19;;;13.35;100.00
32324;BME280;25666;44.350;9.222;2023-11-21T01:13:52;100824.75;;;13.44;100.00
32324;BME280;25666;44.350;9.222;2023-11-21T01:16:18;100829.63;;;13.47;100.00
32324;BME280;25666;44.350;9.222;2023-11-21T01:18:47;100826.47;;;13.49;100.00
32324;BME280;25666;44.350;9.222;2023-11-21T01:21:13;100827.28;;;13.49;100.00
32324;BME280;25666;44.350;9.222;2023-11-21T01:23:40;100828.53;;;13.52;100.00
32324;BME280;25666;44.350;9.222;2023-11-21T01:26:06;100817.41;;;13.55;100.00
32324;BME280;25666;44.350;9.222;2023-11-21T01:28:35;100820.38;;;13.62;100.00
32324;BME280;25666;44.350;9.222;2023-11-21T01:31:01;100815.44;;;13.56;100.00
32324;BME280;25666;44.350;9.222;2023-11-21T01:33:29;100805.25;;;13.67;100.00
32324;BME280;25666;44.350;9.222;2023-11-21T01:35:55;100806.16;;;13.71;100.00
32324;BME280;25666;44.350;9.222;2023-11-21T01:38:21;100799.22;;;13.65;100.00
32324;BME280;25666;44.350;9.222;2023-11-21T01:40:47;100786.84;;;13.66;100.00
32324;BME280;25666;44.350;9.222;2023-11-21T01:43:13;100789.59;;;13.62;100.00
32324;BME280;25666;44.350;9.222;2023-11-21T01:45:38;100793.56;;;13.61;100.00
32324;BME280;25666;44.350;9.222;2023-11-21T01:48:04;100789.53;;;13.59;100.00
32324;BME280;25666;44.350;9.222;2023-11-21T01:50:32;100793.81;;;13.53;100.00
32324;BME280;25666;44.350;9.222;2023-11-21T01:52:59;100798.06;;;13.47;100.00
32324;BME280;25666;44.350;9.222;2023-11-21T01:55:26;100801.88;;;13.58;100.00
32324;BME280;25666;44.350;9.222;2023-11-21T01:57:53;100796.28;;;13.58;100.00
32324;BME280;25666;44.350;9.222;2023-11-21T02:00:19;100798.41;;;13.64;100.00
32324;BME280;25666;44.350;9.222;2023-11-21T02:02:46;100791.09;;;13.56;100.00
32324;BME280;25666;44.350;9.222;2023-11-21T02:05:17;100778.34;;;13.59;100.00
32324;BME280;25666;44.350;9.222;2023-11-21T02:07:47;100781.63;;;13.64;100.00
32324;BME280;25666;44.350;9.222;2023-11-21T02:10:17;100768.97;;;13.70;100.00
32324;BME280;25666;44.350;9.222;2023-11-21T02:12:49;100769.03;;;13.74;100.00
32324;BME280;25666;44.350;9.222;2023-11-21T02:15:18;100750.69;;;13.76;100.00
32324;BME280;25666;44.350;9.222;2023-11-21T02:17:47;100746.72;;;13.77;100.00
32324;BME280;25666;44.350;9.222;2023-11-21T02:20:17;100736.63;;;13.73;100.00
32324;BME280;25666;44.350;9.222;2023-11-21T02:22:53;100728.69;;;13.75;100.00
32324;BME280;25666;44.350;9.222;2023-11-21T02:25:25;100725.69;;;13.64;100.00
32324;BME280;25666;44.350;9.222;2023-11-21T02:27:53;100720.91;;;13.65;100.00
32324;BME280;25666;44.350;9.222;2023-11-21T02:30:21;100726.94;;;13.67;100.00
32324;BME280;25666;44.350;9.222;2023-11-21T02:32:48;100721.06;;;13.72;100.00
32324;BME280;25666;44.350;9.222;2023-11-21T02:35:14;100697.41;;;13.69;100.00
32324;BME280;25666;44.350;9.222;2023-11-21T02:37:41;100696.25;;;13.70;100.00
32324;BME280;25666;44.350;9.222;2023-11-21T02:40:10;100694.25;;;13.71;100.00
32324;BME280;25666;44.350;9.222;2023-11-21T02:42:38;100695.75;;;13.65;100.00
32324;BME280;25666;44.350;9.222;2023-11-21T02:45:06;100696.09;;;13.63;100.00
32324;BME280;25666;44.350;9.222;2023-11-21T02:47:32;100693.31;;;13.63;100.00
32324;BME280;25666;44.350;9.222;2023-11-21T02:49:57;100693.75;;;13.65;100.00
32324;BME280;25666;44.350;9.222;2023-11-21T02:52:23;100687.66;;;13.60;100.00
32324;BME280;25666;44.350;9.222;2023-11-21T02:54:49;100700.53;;;13.64;100.00
32324;BME280;25666;44.350;9.222;2023-11-21T02:57:14;100690.97;;;13.65;100.00
32324;BME280;25666;44.350;9.222;2023-11-21T02:59:40;100691.75;;;13.66;100.00
32324;BME280;25666;44.350;9.222;2023-11-21T03:02:07;100699.34;;;13.65;100.00
32324;BME280;25666;44.350;9.222;2023-11-21T03:04:36;100698.53;;;13.65;100.00
32324;BME280;25666;44.350;9.222;2023-11-21T03:07:03;100695.28;;;13.63;100.00
32324;BME280;25666;44.350;9.222;2023-11-21T03:09:30;100701.06;;;13.51;100.00
32324;BME280;25666;44.350;9.222;2023-11-21T03:11:56;100702.25;;;13.50;100.00
32324;BME280;25666;44.350;9.222;2023-11-21T03:14:21;100702.19;;;13.46;100.00
32324;BME280;25666;44.350;9.222;2023-11-21T03:16:48;100703.75;;;13.44;100.00
32324;BME280;25666;44.350;9.222;2023-11-21T03:19:14;100694.41;;;13.36;100.00
32324;BME280;25666;44.350;9.222;2023-11-21T03:21:40;100707.13;;;13.33;100.00
32324;BME280;25666;44.350;9.222;2023-11-21T03:24:06;100693.84;;;13.27;100.00
32324;BME280;25666;44.350;9.222;2023-11-21T03:26:33;100688.38;;;13.34;100.00
32324;BME280;25666;44.350;9.222;2023-11-21T03:28:59;100687.75;;;13.44;100.00
32324;BME280;25666;44.350;9.222;2023-11-21T03:31:26;100689.63;;;13.36;100.00
32324;BME280;25666;44.350;9.222;2023-11-21T03:33:52;100678.81;;;13.35;100.00
32324;BME280;25666;44.350;9.222;2023-11-21T03:36:20;100674.84;;;13.36;100.00
32324;BME280;25666;44.350;9.222;2023-11-21T03:38:45;100676.16;;;13.42;100.00
32324;BME280;25666;44.350;9.222;2023-11-21T03:41:11;100662.16;;;13.42;100.00
32324;BME280;25666;44.350;9.222;2023-11-21T03:43:37;100660.25;;;13.46;100.00
32324;BME280;25666;44.350;9.222;2023-11-21T03:46:05;100650.63;;;13.44;100.00
32324;BME280;25666;44.350;9.222;2023-11-21T03:48:32;100650.56;;;13.40;100.00
32324;BME280;25666;44.350;9.222;2023-11-21T03:50:58;100652.41;;;13.32;100.00
32324;BME280;25666;44.350;9.222;2023-11-21T03:53:25;100649.75;;;13.39;100.00
32324;BME280;25666;44.350;9.222;2023-11-21T03:55:50;100657.31;;;13.39;100.00
32324;BME280;25666;44.350;9.222;2023-11-21T03:58:16;100657.66;;;13.37;100.00
32324;BME280;25666;44.350;9.222;2023-11-21T04:00:41;100661.75;;;13.40;100.00
32324;BME280;25666;44.350;9.222;2023-11-21T04:03:07;100664.22;;;13.45;100.00
32324;BME280;25666;44.350;9.222;2023-11-21T04:05:32;100667.41;;;13.44;100.00
32324;BME280;25666;44.350;9.222;2023-11-21T04:07:58;100672.59;;;13.45;100.00
32324;BME280;25666;44.350;9.222;2023-11-21T04:10:24;100668.06;;;13.37;100.00
32324;BME280;25666;44.350;9.222;2023-11-21T04:12:50;100668.19;;;13.44;100.00
32324;BME280;25666;44.350;9.222;2023-11-21T04:15:17;100670.69;;;13.49;100.00
32324;BME280;25666;44.350;9.222;2023-11-21T04:17:43;100668.72;;;13.50;100.00
32324;BME280;25666;44.350;9.222;2023-11-21T04:20:11;100663.78;;;13.43;100.00
32324;BME280;25666;44.350;9.222;2023-11-21T04:22:40;100669.88;;;13.49;100.00
32324;BME280;25666;44.350;9.222;2023-11-21T04:25:08;100664.53;;;13.40;100.00
32324;BME280;25666;44.350;9.222;2023-11-21T04:27:34;100669.66;;;13.38;100.00
32324;BME280;25666;44.350;9.222;2023-11-21T04:30:00;100674.44;;;13.37;100.00
32324;BME280;25666;44.350;9.222;2023-11-21T04:32:25;100655.13;;;13.29;100.00
32324;BME280;25666;44.350;9.222;2023-11-21T04:34:51;100653.06;;;13.26;100.00
32324;BME280;25666;44.350;9.222;2023-11-21T04:37:17;100652.47;;;13.36;100.00
32324;BME280;25666;44.350;9.222;2023-11-21T04:39:43;100641.53;;;13.27;100.00
32324;BME280;25666;44.350;9.222;2023-11-21T04:42:09;100645.28;;;13.16;100.00
32324;BME280;25666;44.350;9.222;2023-11-21T04:44:35;100659.25;;;13.16;100.00
32324;BME280;25666;44.350;9.222;2023-11-21T04:47:03;100658.47;;;13.15;100.00
32324;BME280;25666;44.350;9.222;2023-11-21T04:49:30;100658.75;;;13.10;100.00
32324;BME280;25666;44.350;9.222;2023-11-21T04:51:56;100655.59;;;13.12;100.00
32324;BME280;25666;44.350;9.222;2023-11-21T04:54:22;100662.75;;;13.09;100.00
32324;BME280;25666;44.350;9.222;2023-11-21T04:56:49;100659.78;;;13.02;100.00
32324;BME280;25666;44.350;9.222;2023-11-21T04:59:15;100656.78;;;13.11;100.00
32324;BME280;25666;44.350;9.222;2023-11-21T05:01:41;100667.97;;;13.11;100.00
32324;BME280;25666;44.350;9.222;2023-11-21T05:04:08;100658.06;;;12.98;100.00
32324;BME280;25666;44.350;9.222;2023-11-21T05:06:36;100670.56;;;13.04;100.00
32324;BME280;25666;44.350;9.222;2023-11-21T05:09:04;100665.44;;;13.06;100.00
32324;BME280;25666;44.350;9.222;2023-11-21T05:11:30;100657.84;;;13.06;100.00
32324;BME280;25666;44.350;9.222;2023-11-21T05:13:55;100657.94;;;13.10;100.00
32324;BME280;25666;44.350;9.222;2023-11-21T05:16:22;100661.03;;;13.05;100.00
32324;BME280;25666;44.350;9.222;2023-11-21T05:18:48;100662.50;;;12.99;100.00
32324;BME280;25666;44.350;9.222;2023-11-21T05:21:16;100663.00;;;13.04;100.00
32324;BME280;25666;44.350;9.222;2023-11-21T05:23:41;100661.13;;;13.08;100.00
32324;BME280;25666;44.350;9.222;2023-11-21T05:26:07;100661.31;;;13.00;100.00
32324;BME280;25666;44.350;9.222;2023-11-21T05:28:32;100663.75;;;13.01;100.00
32324;BME280;25666;44.350;9.222;2023-11-21T05:30:58;100667.03;;;12.87;100.00
32324;BME280;25666;44.350;9.222;2023-11-21T05:33:23;100667.56;;;12.93;100.00
32324;BME280;25666;44.350;9.222;2023-11-21T05:35:50;100663.22;;;12.96;100.00
32324;BME280;25666;44.350;9.222;2023-11-21T05:38:16;100663.66;;;12.98;100.00
32324;BME280;25666;44.350;9.222;2023-11-21T05:40:41;100664.84;;;12.97;100.00
32324;BME280;25666;44.350;9.222;2023-11-21T05:43:07;100659.03;;;12.86;100.00
32324;BME280;25666;44.350;9.222;2023-11-21T05:45:32;100655.75;;;12.80;100.00
32324;BME280;25666;44.350;9.222;2023-11-21T05:47:58;100657.88;;;12.87;100.00
32324;BME280;25666;44.350;9.222;2023-11-21T05:50:24;100653.88;;;12.88;100.00
32324;BME280;25666;44.350;9.222;2023-11-21T05:52:49;100645.50;;;12.88;100.00
32324;BME280;25666;44.350;9.222;2023-11-21T05:55:15;100646.56;;;12.80;100.00
32324;BME280;25666;44.350;9.222;2023-11-21T05:57:42;100643.25;;;12.74;100.00
32324;BME280;25666;44.350;9.222;2023-11-21T06:00:10;100649.56;;;12.71;100.00
32324;BME280;25666;44.350;9.222;2023-11-21T06:02:40;100653.88;;;12.69;100.00
32324;BME280;25666;44.350;9.222;2023-11-21T06:05:07;100661.16;;;12.54;100.00
32324;BME280;25666;44.350;9.222;2023-11-21T06:07:34;100656.91;;;12.60;100.00
32324;BME280;25666;44.350;9.222;2023-11-21T06:10:02;100650.56;;;12.63;100.00
32324;BME280;25666;44.350;9.222;2023-11-21T06:12:30;100634.28;;;12.65;100.00
32324;BME280;25666;44.350;9.222;2023-11-21T06:14:56;100630.00;;;12.52;100.00
32324;BME280;25666;44.350;9.222;2023-11-21T06:17:22;100628.47;;;12.55;100.00
32324;BME280;25666;44.350;9.222;2023-11-21T06:19:50;100620.59;;;12.60;100.00
32324;BME280;25666;44.350;9.222;2023-11-21T06:22:18;100629.13;;;12.48;100.00
32324;BME280;25666;44.350;9.222;2023-11-21T06:24:43;100622.16;;;12.58;100.00
32324;BME280;25666;44.350;9.222;2023-11-21T06:27:09;100631.59;;;12.53;100.00
32324;BME280;25666;44.350;9.222;2023-11-21T06:29:34;100633.63;;;12.53;100.00
32324;BME280;25666;44.350;9.222;2023-11-21T06:32:02;100634.63;;;12.64;100.00
32324;BME280;25666;44.350;9.222;2023-11-21T06:34:30;100631.19;;;12.70;100.00
32324;BME280;25666;44.350;9.222;2023-11-21T06:36:58;100623.25;;;12.72;100.00
32324;BME280;25666;44.350;9.222;2023-11-21T06:39:25;100623.25;;;12.72;100.00
32324;BME280;25666;44.350;9.222;2023-11-21T06:41:50;100620.81;;;12.71;100.00
32324;BME280;25666;44.350;9.222;2023-11-21T06:44:16;100621.50;;;12.64;100.00
32324;BME280;25666;44.350;9.222;2023-11-21T06:46:41;100623.31;;;12.57;100.00
32324;BME280;25666;44.350;9.222;2023-11-21T06:49:08;100624.44;;;12.52;100.00
32324;BME280;25666;44.350;9.222;2023-11-21T06:51:34;100626.25;;;12.64;100.00
32324;BME280;25666;44.350;9.222;2023-11-21T06:54:00;100622.50;;;12.56;100.00
32324;BME280;25666;44.350;9.222;2023-11-21T06:56:25;100620.44;;;12.53;100.00
32324;BME280;25666;44.350;9.222;2023-11-21T06:59:09;100629.94;;;12.68;100.00
32324;BME280;25666;44.350;9.222;2023-11-21T07:01:36;100641.13;;;12.68;100.00
32324;BME280;25666;44.350;9.222;2023-11-21T07:04:05;100646.53;;;12.61;100.00
32324;BME280;25666;44.350;9.222;2023-11-21T07:06:31;100644.09;;;12.59;100.00
32324;BME280;25666;44.350;9.222;2023-11-21T07:08:57;100649.69;;;12.59;100.00
32324;BME280;25666;44.350;9.222;2023-11-21T07:11:25;100645.44;;;12.65;100.00
32324;BME280;25666;44.350;9.222;2023-11-21T07:13:51;100656.75;;;12.72;100.00
32324;BME280;25666;44.350;9.222;2023-11-21T07:16:18;100658.00;;;12.75;100.00
32324;BME280;25666;44.350;9.222;2023-11-21T07:18:45;100662.56;;;12.83;100.00
32324;BME280;25666;44.350;9.222;2023-11-21T07:21:11;100665.59;;;12.94;100.00
32324;BME280;25666;44.350;9.222;2023-11-21T07:23:41;100671.13;;;13.09;100.00
32324;BME280;25666;44.350;9.222;2023-11-21T07:26:07;100669.84;;;13.07;100.00
32324;BME280;25666;44.350;9.222;2023-11-21T07:28:35;100667.44;;;13.24;100.00
32324;BME280;25666;44.350;9.222;2023-11-21T07:31:01;100677.66;;;13.17;100.00
32324;BME280;25666;44.350;9.222;2023-11-21T07:33:27;100682.94;;;13.22;100.00
32324;BME280;25666;44.350;9.222;2023-11-21T07:35:52;100682.22;;;13.25;100.00
32324;BME280;25666;44.350;9.222;2023-11-21T07:38:18;100679.03;;;13.26;100.00
32324;BME280;25666;44.350;9.222;2023-11-21T07:40:44;100684.28;;;13.28;100.00
32324;BME280;25666;44.350;9.222;2023-11-21T07:43:09;100683.47;;;13.27;100.00
32324;BME280;25666;44.350;9.222;2023-11-21T07:45:36;100684.31;;;13.31;100.00
32324;BME280;25666;44.350;9.222;2023-11-21T07:48:02;100700.59;;;13.26;100.00
32324;BME280;25666;44.350;9.222;2023-11-21T07:50:29;100693.44;;;13.28;100.00
32324;BME280;25666;44.350;9.222;2023-11-21T07:52:54;100694.84;;;13.38;100.00
32324;BME280;25666;44.350;9.222;2023-11-21T07:55:20;100696.63;;;13.27;100.00
32324;BME280;25666;44.350;9.222;2023-11-21T07:57:46;100686.75;;;13.33;100.00
32324;BME280;25666;44.350;9.222;2023-11-21T08:00:12;100688.06;;;13.39;100.00
32324;BME280;25666;44.350;9.222;2023-11-21T08:02:40;100687.66;;;13.37;100.00
32324;BME280;25666;44.350;9.222;2023-11-21T08:05:12;100688.00;;;13.35;100.00
32324;BME280;25666;44.350;9.222;2023-11-21T08:07:38;100695.72;;;13.42;100.00
32324;BME280;25666;44.350;9.222;2023-11-21T08:10:04;100695.50;;;13.31;100.00
32324;BME280;25666;44.350;9.222;2023-11-21T08:12:31;100696.31;;;13.32;100.00
32324;BME280;25666;44.350;9.222;2023-11-21T08:14:57;100706.00;;;13.38;100.00
32324;BME280;25666;44.350;9.222;2023-11-21T08:17:23;100681.00;;;13.45;100.00
32324;BME280;25666;44.350;9.222;2023-11-21T08:19:49;100682.22;;;13.48;100.00
32324;BME280;25666;44.350;9.222;2023-11-21T08:22:17;100680.81;;;13.57;100.00
32324;BME280;25666;44.350;9.222;2023-11-21T08:24:44;100675.34;;;13.64;100.00
32324;BME280;25666;44.350;9.222;2023-11-21T08:27:10;100660.03;;;14.04;100.00
32324;BME280;25666;44.350;9.222;2023-11-21T08:29:35;100662.94;;;14.11;100.00
32324;BME280;25666;44.350;9.222;2023-11-21T08:32:02;100668.38;;;14.26;100.00
32324;BME280;25666;44.350;9.222;2023-11-21T08:34:30;100664.16;;;14.36;100.00
32324;BME280;25666;44.350;9.222;2023-11-21T08:36:55;100658.09;;;14.60;100.00
32324;BME280;25666;44.350;9.222;2023-11-21T08:39:22;100660.28;;;14.74;100.00
32324;BME280;25666;44.350;9.222;2023-11-21T08:41:50;100652.69;;;15.08;100.00
32324;BME280;25666;44.350;9.222;2023-11-21T08:44:16;100649.38;;;14.98;100.00
32324;BME280;25666;44.350;9.222;2023-11-21T08:46:47;100643.72;;;14.95;100.00
32324;BME280;25666;44.350;9.222;2023-11-21T08:49:13;100633.41;;;15.02;100.00
32324;BME280;25666;44.350;9.222;2023-11-21T08:51:42;100624.19;;;15.02;100.00
32324;BME280;25666;44.350;9.222;2023-11-21T08:54:09;100626.59;;;15.03;100.00
32324;BME280;25666;44.350;9.222;2023-11-21T08:56:34;100609.09;;;15.14;100.00
32324;BME280;25666;44.350;9.222;2023-11-21T08:59:00;100602.31;;;15.15;100.00
32324;BME280;25666;44.350;9.222;2023-11-21T09:01:28;100579.97;;;15.22;100.00
32324;BME280;25666;44.350;9.222;2023-11-21T09:03:53;100584.44;;;15.30;100.00
32324;BME280;25666;44.350;9.222;2023-11-21T09:06:19;100580.94;;;15.87;100.00
32324;BME280;25666;44.350;9.222;2023-11-21T09:08:44;100582.56;;;15.92;100.00
32324;BME280;25666;44.350;9.222;2023-11-21T09:11:10;100587.34;;;15.84;100.00
32324;BME280;25666;44.350;9.222;2023-11-21T09:13:36;100580.88;;;15.77;100.00
32324;BME280;25666;44.350;9.222;2023-11-21T09:16:02;100588.63;;;15.94;100.00
32324;BME280;25666;44.350;9.222;2023-11-21T09:18:28;100580.56;;;15.92;100.00
32324;BME280;25666;44.350;9.222;2023-11-21T09:20:53;100595.09;;;16.05;100.00
32324;BME280;25666;44.350;9.222;2023-11-21T09:23:19;100578.03;;;16.31;100.00
32324;BME280;25666;44.350;9.222;2023-11-21T09:25:44;100569.56;;;16.28;100.00
32324;BME280;25666;44.350;9.222;2023-11-21T09:28:12;100573.63;;;16.37;100.00
32324;BME280;25666;44.350;9.222;2023-11-21T09:30:38;100580.06;;;16.38;100.00
32324;BME280;25666;44.350;9.222;2023-11-21T09:33:04;100581.66;;;16.39;100.00
32324;BME280;25666;44.350;9.222;2023-11-21T09:35:32;100587.34;;;16.53;100.00
32324;BME280;25666;44.350;9.222;2023-11-21T09:37:58;100583.34;;;16.50;100.00
32324;BME280;25666;44.350;9.222;2023-11-21T09:40:24;100584.56;;;16.53;100.00
32324;BME280;25666;44.350;9.222;2023-11-21T09:42:54;100572.59;;;16.63;100.00
32324;BME280;25666;44.350;9.222;2023-11-21T09:45:32;100560.16;;;16.68;100.00
32324;BME280;25666;44.350;9.222;2023-11-21T09:48:00;100561.75;;;16.65;100.00
32324;BME280;25666;44.350;9.222;2023-11-21T09:50:26;100557.75;;;16.66;100.00
32324;BME280;25666;44.350;9.222;2023-11-21T09:53:13;100558.16;;;16.72;100.00
32324;BME280;25666;44.350;9.222;2023-11-21T09:55:47;100555.31;;;16.61;100.00
32324;BME280;25666;44.350;9.222;2023-11-21T09:58:14;100569.34;;;16.57;100.00
32324;BME280;25666;44.350;9.222;2023-11-21T10:00:44;100567.66;;;16.46;100.00
32324;BME280;25666;44.350;9.222;2023-11-21T10:03:10;100565.63;;;16.39;100.00
32324;BME280;25666;44.350;9.222;2023-11-21T10:05:38;100564.44;;;16.51;100.00
32324;BME280;25666;44.350;9.222;2023-11-21T10:08:07;100566.88;;;16.49;100.00
32324;BME280;25666;44.350;9.222;2023-11-21T10:10:33;100568.44;;;16.43;100.00
32324;BME280;25666;44.350;9.222;2023-11-21T10:13:03;100567.59;;;16.35;100.00
32324;BME280;25666;44.350;9.222;2023-11-21T10:15:33;100560.00;;;16.43;100.00
32324;BME280;25666;44.350;9.222;2023-11-21T10:18:02;100564.84;;;16.46;100.00
32324;BME280;25666;44.350;9.222;2023-11-21T10:20:28;100556.91;;;16.58;100.00
32324;BME280;25666;44.350;9.222;2023-11-21T10:22:55;100556.91;;;16.58;100.00
32324;BME280;25666;44.350;9.222;2023-11-21T10:25:22;100561.72;;;16.62;100.00
32324;BME280;25666;44.350;9.222;2023-11-21T10:27:49;100566.94;;;16.56;100.00
32324;BME280;25666;44.350;9.222;2023-11-21T10:30:17;100565.75;;;16.57;100.00
32324;BME280;25666;44.350;9.222;2023-11-21T10:32:43;100556.91;;;16.62;100.00
32324;BME280;25666;44.350;9.222;2023-11-21T10:35:10;100558.91;;;16.58;100.00
32324;BME280;25666;44.350;9.222;2023-11-21T10:37:39;100562.19;;;16.74;100.00
32324;BME280;25666;44.350;9.222;2023-11-21T10:40:11;100560.22;;;16.82;100.00
32324;BME280;25666;44.350;9.222;2023-11-21T10:42:40;100560.59;;;16.84;100.00
32324;BME280;25666;44.350;9.222;2023-11-21T10:45:08;100563.38;;;16.77;100.00
32324;BME280;25666;44.350;9.222;2023-11-21T10:47:44;100559.34;;;16.71;100.00
32324;BME280;25666;44.350;9.222;2023-11-21T10:50:11;100553.31;;;16.62;100.00
32324;BME280;25666;44.350;9.222;2023-11-21T10:52:40;100553.31;;;16.65;100.00
32324;BME280;25666;44.350;9.222;2023-11-21T10:55:18;100545.69;;;16.66;100.00
32324;BME280;25666;44.350;9.222;2023-11-21T10:57:51;100538.47;;;16.68;100.00
32324;BME280;25666;44.350;9.222;2023-11-21T11:00:19;100537.69;;;16.75;100.00
32324;BME280;25666;44.350;9.222;2023-11-21T11:02:51;100531.69;;;16.83;100.00
32324;BME280;25666;44.350;9.222;2023-11-21T11:05:23;100520.47;;;16.90;100.00
32324;BME280;25666;44.350;9.222;2023-11-21T11:08:12;100522.88;;;16.95;100.00
32324;BME280;25666;44.350;9.222;2023-11-21T11:10:50;100513.22;;;16.93;100.00
32324;BME280;25666;44.350;9.222;2023-11-21T11:13:16;100506.00;;;16.95;100.00
32324;BME280;25666;44.350;9.222;2023-11-21T11:15:42;100506.81;;;16.96;100.00
32324;BME280;25666;44.350;9.222;2023-11-21T11:18:09;100501.19;;;16.99;100.00
32324;BME280;25666;44.350;9.222;2023-11-21T11:20:37;100490.75;;;16.96;100.00
32324;BME280;25666;44.350;9.222;2023-11-21T11:23:32;100485.53;;;17.02;100.00
32324;BME280;25666;44.350;9.222;2023-11-21T11:26:37;100483.13;;;17.00;100.00
32324;BME280;25666;44.350;9.222;2023-11-21T11:34:36;100483.13;;;17.25;100.00
32324;BME280;25666;44.350;9.222;2023-11-21T11:37:07;100477.53;;;17.29;100.00
32324;BME280;25666;44.350;9.222;2023-11-21T11:39:40;100472.28;;;17.27;100.00
32324;BME280;25666;44.350;9.222;2023-11-21T11:42:15;100458.22;;;17.38;100.00
32324;BME280;25666;44.350;9.222;2023-11-21T11:50:06;100472.69;;;17.47;100.00
32324;BME280;25666;44.350;9.222;2023-11-21T11:52:46;100467.06;;;17.50;100.00
32324;BME280;25666;44.350;9.222;2023-11-21T11:55:14;100467.06;;;17.50;100.00
32324;BME280;25666;44.350;9.222;2023-11-21T11:57:42;100460.63;;;17.50;100.00
32324;BME280;25666;44.350;9.222;2023-11-21T12:02:51;100450.97;;;17.61;100.00
32324;BME280;25666;44.350;9.222;2023-11-21T12:05:18;100449.34;;;17.50;100.00
32324;BME280;25666;44.350;9.222;2023-11-21T12:07:51;100443.72;;;17.53;100.00
32324;BME280;25666;44.350;9.222;2023-11-21T12:10:24;100433.28;;;17.64;100.00
32324;BME280;25666;44.350;9.222;2023-11-21T12:13:01;100442.94;;;17.63;100.00
32324;BME280;25666;44.350;9.222;2023-11-21T12:15:27;100447.34;;;17.61;100.00
32324;BME280;25666;44.350;9.222;2023-11-21T12:17:57;100437.72;;;17.37;100.00
32324;BME280;25666;44.350;9.222;2023-11-21T12:20:24;100432.09;;;17.44;100.00
32324;BME280;25666;44.350;9.222;2023-11-21T12:22:51;100438.09;;;17.46;100.00
32324;BME280;25666;44.350;9.222;2023-11-21T12:25:21;100448.56;;;17.53;100.00
32324;BME280;25666;44.350;9.222;2023-11-21T12:27:48;100442.16;;;17.38;100.00
32324;BME280;25666;44.350;9.222;2023-11-21T12:30:16;100439.34;;;17.38;100.00
32324;BME280;25666;44.350;9.222;2023-11-21T12:32:49;100437.28;;;17.39;100.00
32324;BME280;25666;44.350;9.222;2023-11-21T12:35:16;100437.72;;;17.34;100.00
32324;BME280;25666;44.350;9.222;2023-11-21T12:37:45;100432.47;;;17.36;100.00
32324;BME280;25666;44.350;9.222;2023-11-21T12:40:12;100433.28;;;17.47;100.00
32324;BME280;25666;44.350;9.222;2023-11-21T12:42:41;100431.66;;;17.39;100.00
32324;BME280;25666;44.350;9.222;2023-11-21T12:47:41;100432.09;;;17.41;100.00
32324;BME280;25666;44.350;9.222;2023-11-21T12:50:06;100437.31;;;17.32;100.00
32324;BME280;25666;44.350;9.222;2023-11-21T12:52:46;100437.72;;;17.34;100.00
32324;BME280;25666;44.350;9.222;2023-11-21T12:55:22;100433.72;;;17.28;100.00
32324;BME280;25666;44.350;9.222;2023-11-21T12:57:49;100436.50;;;17.17;100.00